Time;durP1;ratioP1;P1;durP2;ratioP2;P2;SDS_P1;SDS_P2;PMS_P1;PMS_P2;Temp;Humidity;BMP_temperature;BMP_pressure;BME280_temperature;BME280_humidity;BME280_pressure;Samples;Min_cycle;Max_cycle;Signal;HPM_P1;HPM_P2
2022/03/23 00:01:34;;;;;;;28.67;20.15;;;4.80;99.90;;;;;;5002166;28;20104;-52
2022/03/23 00:04:00;;;;;;;30.40;19.52;;;4.80;99.90;;;;;;4990589;28;20034;-52
2022/03/23 00:06:26;;;;;;;30.05;21.23;;;4.80;99.90;;;;;;4991593;28;20065;-51
2022/03/23 00:08:51;;;;;;;28.73;20.58;;;4.70;99.90;;;;;;4990999;28;20082;-51
2022/03/23 00:11:17;;;;;;;27.77;20.27;;;4.60;99.90;;;;;;5001637;28;20370;-53
2022/03/23 00:13:43;;;;;;;28.85;20.25;;;4.60;99.90;;;;;;5008698;28;20037;-52
2022/03/23 00:16:08;;;;;;;28.85;20.58;;;4.60;99.90;;;;;;5005135;28;20038;-52
2022/03/23 00:18:34;;;;;;;28.65;20.15;;;4.60;99.90;;;;;;4990975;28;20066;-51
2022/03/23 00:21:00;;;;;;;33.30;22.67;;;4.50;99.90;;;;;;4989312;28;20041;-52
2022/03/23 00:23:26;;;;;;;31.50;21.40;;;4.40;99.90;;;;;;4990027;28;20022;-51
2022/03/23 00:25:51;;;;;;;30.85;22.05;;;4.40;99.90;;;;;;4990135;28;20033;-51
2022/03/23 00:28:19;;;;;;;29.98;21.85;;;4.40;99.90;;;;;;4989576;28;20102;-53
2022/03/23 00:30:45;;;;;;;34.28;21.95;;;4.30;99.90;;;;;;4989889;28;20682;-51
2022/03/23 00:33:10;;;;;;;33.20;22.92;;;4.30;99.90;;;;;;4990053;28;20022;-54
2022/03/23 00:35:36;;;;;;;31.35;22.55;;;4.20;99.90;;;;;;4989093;28;20097;-52
2022/03/23 00:38:02;;;;;;;28.75;20.73;;;4.20;99.90;;;;;;4988692;28;20042;-51
2022/03/23 00:40:28;;;;;;;30.50;20.25;;;4.10;99.90;;;;;;4987909;28;20097;-52
2022/03/23 00:42:56;;;;;;;30.80;22.88;;;4.10;99.90;;;;;;4987709;28;20027;-52
2022/03/23 00:45:21;;;;;;;31.08;20.55;;;4.10;99.90;;;;;;4989286;28;20050;-53
2022/03/23 00:47:48;;;;;;;31.35;21.98;;;4.00;99.90;;;;;;4990026;28;20069;-52
2022/03/23 00:50:14;;;;;;;30.30;21.67;;;4.00;99.90;;;;;;4989482;28;20033;-52
2022/03/23 00:52:40;;;;;;;29.25;22.02;;;3.90;99.90;;;;;;4990027;28;20022;-53
2022/03/23 00:55:09;;;;;;;29.63;22.05;;;3.90;99.90;;;;;;4990065;28;20027;-51
2022/03/23 00:57:35;;;;;;;32.17;23.42;;;3.90;99.90;;;;;;4987764;28;20031;-50
2022/03/23 01:00:02;;;;;;;32.20;22.23;;;3.80;99.90;;;;;;4989200;28;20038;-52
2022/03/23 01:02:28;;;;;;;35.50;21.25;;;3.80;99.90;;;;;;4987511;28;20074;-51
2022/03/23 01:04:53;;;;;;;30.75;22.65;;;3.80;99.90;;;;;;4989047;28;20054;-55
2022/03/23 01:07:19;;;;;;;29.13;22.23;;;3.70;99.90;;;;;;4988789;28;20030;-52
2022/03/23 01:09:44;;;;;;;32.22;22.77;;;3.70;99.90;;;;;;4988826;28;20037;-50
2022/03/23 01:12:10;;;;;;;30.38;22.77;;;3.70;99.90;;;;;;4988140;28;20531;-52
2022/03/23 01:14:36;;;;;;;33.22;22.52;;;3.60;99.90;;;;;;4986889;28;20113;-51
2022/03/23 01:17:01;;;;;;;30.73;22.00;;;3.60;99.90;;;;;;4969898;28;20066;-54
2022/03/23 01:19:27;;;;;;;28.95;21.27;;;3.60;99.90;;;;;;4988556;28;20038;-51
2022/03/23 01:21:54;;;;;;;32.38;21.90;;;3.60;99.90;;;;;;4989858;28;20084;-52
2022/03/23 01:24:20;;;;;;;30.00;22.38;;;3.50;99.90;;;;;;4988823;28;20429;-53
2022/03/23 01:26:45;;;;;;;29.10;21.13;;;3.50;99.90;;;;;;4992238;28;20022;-52
2022/03/23 01:29:11;;;;;;;29.60;21.13;;;3.50;99.90;;;;;;4993090;28;20026;-52
2022/03/23 01:31:37;;;;;;;29.35;20.75;;;3.40;99.90;;;;;;4992928;28;20557;-52
2022/03/23 01:34:02;;;;;;;28.92;20.98;;;3.40;99.90;;;;;;4992631;28;20027;-52
2022/03/23 01:36:30;;;;;;;30.88;22.20;;;3.30;99.90;;;;;;4992374;28;20030;-52
2022/03/23 01:38:56;;;;;;;32.13;22.13;;;3.30;99.90;;;;;;4992891;28;20097;-52
2022/03/23 01:41:23;;;;;;;31.65;22.52;;;3.30;99.90;;;;;;4992414;28;20038;-52
2022/03/23 01:43:49;;;;;;;34.65;22.23;;;3.20;99.90;;;;;;4993179;28;20081;-52
2022/03/23 01:46:19;;;;;;;29.48;20.30;;;3.20;99.90;;;;;;4993035;28;20034;-53
2022/03/23 01:48:50;;;;;;;29.80;22.00;;;3.20;99.90;;;;;;4992756;28;20022;-52
2022/03/23 01:51:16;;;;;;;32.10;20.73;;;3.10;99.90;;;;;;4990102;28;20468;-52
2022/03/23 01:53:41;;;;;;;31.20;22.13;;;3.10;99.90;;;;;;4973551;28;20041;-54
2022/03/23 01:56:11;;;;;;;31.75;22.45;;;3.10;99.90;;;;;;4988515;28;20561;-50
2022/03/23 01:58:37;;;;;;;29.60;21.23;;;3.10;99.90;;;;;;4990744;28;20049;-51
2022/03/23 02:01:03;;;;;;;33.15;23.85;;;3.00;99.90;;;;;;4989758;28;20030;-53
2022/03/23 02:03:29;;;;;;;30.77;23.27;;;3.00;99.90;;;;;;4989880;28;20036;-51
2022/03/23 02:05:54;;;;;;;33.88;22.92;;;2.90;99.90;;;;;;4992029;28;20504;-50
2022/03/23 02:08:20;;;;;;;30.50;22.73;;;2.90;99.90;;;;;;4992003;28;20034;-52
2022/03/23 02:10:46;;;;;;;37.35;22.85;;;2.90;99.90;;;;;;4992230;28;20037;-51
2022/03/23 02:13:11;;;;;;;32.80;23.60;;;2.90;99.90;;;;;;4991235;28;20428;-51
2022/03/23 02:15:37;;;;;;;30.05;23.63;;;2.90;99.90;;;;;;4992033;28;20109;-51
2022/03/23 02:18:04;;;;;;;34.30;23.90;;;2.90;99.90;;;;;;4990822;28;20034;-52
2022/03/23 02:20:30;;;;;;;32.53;21.35;;;2.90;99.90;;;;;;4991705;28;20788;-51
2022/03/23 02:22:55;;;;;;;34.38;23.13;;;2.80;99.90;;;;;;4991952;28;20417;-51
2022/03/23 02:25:25;;;;;;;36.97;23.55;;;2.90;99.90;;;;;;4992124;28;20031;-51
2022/03/23 02:27:52;;;;;;;32.47;23.00;;;2.80;99.90;;;;;;4991840;28;20493;-51
2022/03/23 02:30:19;;;;;;;34.10;24.48;;;2.80;99.90;;;;;;4991614;28;20046;-51
2022/03/23 02:32:45;;;;;;;33.40;25.13;;;2.80;99.90;;;;;;4991844;28;20485;-52
2022/03/23 02:35:14;;;;;;;32.80;24.05;;;2.70;99.90;;;;;;4991342;28;20033;-52
2022/03/23 02:37:41;;;;;;;31.60;23.85;;;2.70;99.90;;;;;;4991231;28;20480;-50
2022/03/23 02:40:08;;;;;;;35.53;24.25;;;2.70;99.90;;;;;;4991244;28;20027;-51
2022/03/23 02:42:34;;;;;;;32.88;24.75;;;2.70;99.90;;;;;;4991676;28;20036;-52
2022/03/23 02:45:00;;;;;;;32.63;22.90;;;2.70;99.90;;;;;;4991085;28;20031;-52
2022/03/23 02:47:25;;;;;;;35.40;24.30;;;2.60;99.90;;;;;;4991387;28;20416;-53
2022/03/23 02:49:51;;;;;;;35.78;25.23;;;2.60;99.90;;;;;;4991475;28;20535;-51
2022/03/23 02:52:16;;;;;;;38.70;25.52;;;2.60;99.90;;;;;;4990227;28;20536;-50
2022/03/23 03:03:07;;;;;;;31.30;22.58;;;2.70;99.90;;;;;;4990357;28;20107;-51
2022/03/23 03:05:33;;;;;;;39.80;25.63;;;2.70;99.90;;;;;;4996861;28;20448;-52
2022/03/23 03:10:42;;;;;;;30.13;23.42;;;2.60;99.90;;;;;;4991368;28;20038;-51
2022/03/23 03:13:08;;;;;;;35.88;24.73;;;2.60;99.90;;;;;;4991076;28;20030;-52
2022/03/23 03:15:34;;;;;;;32.13;23.83;;;2.50;99.90;;;;;;4991212;28;20033;-51
2022/03/23 03:18:00;;;;;;;33.05;23.85;;;2.50;99.90;;;;;;4991109;28;20156;-53
2022/03/23 03:20:27;;;;;;;34.83;23.98;;;2.50;99.90;;;;;;4990402;28;20062;-51
2022/03/23 03:22:53;;;;;;;37.42;26.08;;;2.50;99.90;;;;;;4990761;28;20477;-52
2022/03/23 03:25:22;;;;;;;36.70;24.88;;;2.50;99.90;;;;;;4990544;28;20023;-52
2022/03/23 03:27:48;;;;;;;35.78;25.55;;;2.50;99.90;;;;;;4989319;28;20034;-52
2022/03/23 03:30:16;;;;;;;34.63;23.95;;;2.50;99.90;;;;;;4990486;28;20030;-53
2022/03/23 03:32:43;;;;;;;34.67;24.23;;;2.50;99.90;;;;;;4990584;28;20109;-50
2022/03/23 03:35:09;;;;;;;29.00;22.48;;;2.40;99.90;;;;;;4989152;28;20034;-52
2022/03/23 03:37:35;;;;;;;33.92;23.63;;;2.40;99.90;;;;;;4990445;28;20062;-50
2022/03/23 03:40:02;;;;;;;34.10;24.70;;;2.40;99.90;;;;;;4990045;28;20065;-52
2022/03/23 03:42:29;;;;;;;35.08;24.45;;;2.40;99.90;;;;;;4990349;28;20111;-52
2022/03/23 03:44:55;;;;;;;32.70;21.70;;;2.40;99.90;;;;;;4990342;28;20109;-52
2022/03/23 03:47:20;;;;;;;35.58;25.48;;;2.30;99.90;;;;;;4990693;28;20061;-52
2022/03/23 03:49:49;;;;;;;39.15;25.42;;;2.20;99.90;;;;;;4989824;28;20065;-52
2022/03/23 03:52:15;;;;;;;38.38;25.85;;;2.20;99.90;;;;;;4990678;28;20046;-51
2022/03/23 03:54:40;;;;;;;39.83;26.17;;;2.20;99.90;;;;;;4990724;28;20038;-52
2022/03/23 03:57:07;;;;;;;35.80;24.60;;;2.20;99.90;;;;;;4990242;28;20087;-52
2022/03/23 03:59:34;;;;;;;37.42;25.15;;;2.10;99.90;;;;;;4990271;28;20030;-51
2022/03/23 04:02:00;;;;;;;39.72;23.92;;;2.10;99.90;;;;;;4990220;28;20058;-53
2022/03/23 04:04:25;;;;;;;35.25;24.85;;;2.10;99.90;;;;;;4990442;28;20058;-53
2022/03/23 04:06:51;;;;;;;32.47;24.77;;;2.00;99.90;;;;;;4990566;28;20486;-51
2022/03/23 04:09:16;;;;;;;37.83;25.30;;;2.00;99.90;;;;;;4989883;28;20022;-50
2022/03/23 04:11:42;;;;;;;41.10;26.90;;;2.00;99.90;;;;;;4990222;28;20030;-52
2022/03/23 04:14:07;;;;;;;37.75;25.58;;;1.90;99.90;;;;;;4989653;28;20106;-50
2022/03/23 04:16:33;;;;;;;36.03;26.23;;;1.90;99.90;;;;;;4990172;28;20034;-52
2022/03/23 04:18:59;;;;;;;36.35;25.38;;;1.90;99.90;;;;;;4989867;28;20102;-50
2022/03/23 04:21:27;;;;;;;38.55;26.05;;;1.90;99.90;;;;;;4989748;28;20628;-51
2022/03/23 04:23:53;;;;;;;36.55;24.65;;;1.80;99.90;;;;;;4989835;28;20023;-50
2022/03/23 04:26:18;;;;;;;36.35;24.95;;;1.80;99.90;;;;;;4989974;28;20034;-51
2022/03/23 04:28:44;;;;;;;34.67;24.65;;;1.80;99.90;;;;;;4990593;28;20045;-52
2022/03/23 04:31:09;;;;;;;36.47;26.35;;;1.80;99.90;;;;;;4990151;28;20477;-53
2022/03/23 04:33:35;;;;;;;37.42;24.98;;;1.70;99.90;;;;;;4990062;28;20030;-51
2022/03/23 04:36:00;;;;;;;35.75;24.65;;;1.70;99.90;;;;;;4991117;28;20516;-52
2022/03/23 04:38:26;;;;;;;36.13;25.88;;;1.70;99.90;;;;;;4990073;28;20035;-52
2022/03/23 04:40:53;;;;;;;38.72;27.25;;;1.70;99.90;;;;;;4989840;28;20041;-50
2022/03/23 04:43:19;;;;;;;37.50;26.23;;;1.70;99.90;;;;;;4988559;28;20022;-54
2022/03/23 04:45:44;;;;;;;37.70;27.10;;;1.70;99.90;;;;;;4990334;28;20030;-52
2022/03/23 04:48:10;;;;;;;42.03;27.58;;;1.60;99.90;;;;;;4989561;28;20093;-52
2022/03/23 04:50:35;;;;;;;38.00;26.58;;;1.60;99.90;;;;;;4989746;28;20076;-52
2022/03/23 04:53:01;;;;;;;38.67;26.25;;;1.60;99.90;;;;;;4989524;28;20027;-52
2022/03/23 04:55:26;;;;;;;37.92;26.77;;;1.60;99.90;;;;;;4989572;28;20038;-52
2022/03/23 04:57:52;;;;;;;42.78;28.48;;;1.60;99.90;;;;;;4988560;28;20547;-52
2022/03/23 05:00:20;;;;;;;40.05;28.92;;;1.60;99.90;;;;;;4990644;28;20030;-50
2022/03/23 05:02:47;;;;;;;38.53;27.23;;;1.50;99.90;;;;;;5026744;23;20034;-49
2022/03/23 05:05:13;;;;;;;41.67;28.40;;;1.60;99.90;;;;;;5012530;28;20057;-48
2022/03/23 05:07:40;;;;;;;40.17;27.83;;;1.60;99.90;;;;;;5013131;28;20120;-47
2022/03/23 05:10:08;;;;;;;41.38;26.90;;;1.60;99.90;;;;;;5012841;28;20034;-46
2022/03/23 05:12:37;;;;;;;38.70;26.80;;;1.60;99.90;;;;;;5000365;28;20034;-47
2022/03/23 05:15:04;;;;;;;40.30;27.27;;;1.60;99.90;;;;;;4992832;28;20031;-48
2022/03/23 05:17:30;;;;;;;41.28;27.00;;;1.60;99.90;;;;;;4991645;28;20552;-46
2022/03/23 05:19:56;;;;;;;44.97;27.98;;;1.50;99.90;;;;;;4975152;28;20185;-50
2022/03/23 05:22:21;;;;;;;37.10;27.08;;;1.50;99.90;;;;;;4991162;28;20050;-51
2022/03/23 05:24:47;;;;;;;36.05;26.75;;;1.50;99.90;;;;;;4992858;28;20026;-49
2022/03/23 05:27:12;;;;;;;36.53;26.23;;;1.40;99.90;;;;;;4992623;28;20108;-46
2022/03/23 05:29:38;;;;;;;41.83;27.48;;;1.40;99.90;;;;;;4993102;28;20038;-46
2022/03/23 05:32:04;;;;;;;36.00;26.42;;;1.40;99.90;;;;;;4992758;28;20049;-47
2022/03/23 05:34:30;;;;;;;35.33;26.13;;;1.40;99.90;;;;;;4993564;28;20015;-48
2022/03/23 05:36:56;;;;;;;40.60;28.40;;;1.40;99.90;;;;;;4992742;28;20030;-47
2022/03/23 05:39:21;;;;;;;39.05;26.98;;;1.40;99.90;;;;;;4991496;28;20034;-49
2022/03/23 05:41:47;;;;;;;42.35;27.38;;;1.40;99.90;;;;;;4992956;28;20042;-46
2022/03/23 05:44:12;;;;;;;39.65;27.73;;;1.40;99.90;;;;;;4992628;28;20033;-48
2022/03/23 05:46:38;;;;;;;45.08;29.88;;;1.40;99.90;;;;;;4992942;28;20030;-46
2022/03/23 05:49:04;;;;;;;40.05;28.80;;;1.50;99.90;;;;;;4992718;28;20116;-49
2022/03/23 05:51:30;;;;;;;44.45;29.60;;;1.50;99.90;;;;;;4991450;28;20026;-47
2022/03/23 05:53:55;;;;;;;41.15;28.23;;;1.50;99.90;;;;;;4992172;28;20059;-48
2022/03/23 05:56:21;;;;;;;43.45;30.25;;;1.50;99.90;;;;;;4992351;28;20550;-47
2022/03/23 05:58:48;;;;;;;39.47;28.92;;;1.60;99.90;;;;;;4992155;28;20088;-47
2022/03/23 06:01:14;;;;;;;40.65;28.20;;;1.60;99.90;;;;;;4992431;28;20027;-48
2022/03/23 06:03:39;;;;;;;40.97;29.52;;;1.60;99.90;;;;;;4991873;28;20062;-48
2022/03/23 06:06:06;;;;;;;40.97;27.60;;;1.70;99.90;;;;;;4992382;28;20027;-50
2022/03/23 06:08:31;;;;;;;41.38;29.38;;;1.70;99.90;;;;;;4992428;28;20026;-47
2022/03/23 06:10:57;;;;;;;42.85;29.50;;;1.70;99.90;;;;;;4991946;28;20129;-47
2022/03/23 06:13:23;;;;;;;40.75;27.33;;;1.70;99.90;;;;;;4990881;28;20038;-49
2022/03/23 06:15:49;;;;;;;40.33;27.90;;;1.70;99.90;;;;;;4992003;28;20500;-46
2022/03/23 06:18:14;;;;;;;37.58;28.92;;;1.70;99.90;;;;;;4992196;28;20022;-46
2022/03/23 06:20:40;;;;;;;41.60;29.60;;;1.80;99.90;;;;;;4991409;28;20026;-46
2022/03/23 06:23:05;;;;;;;42.60;29.67;;;1.80;99.90;;;;;;4992111;28;20118;-49
2022/03/23 06:25:32;;;;;;;41.05;28.35;;;1.90;99.90;;;;;;4991940;28;20026;-48
2022/03/23 06:27:57;;;;;;;46.60;29.17;;;1.90;99.90;;;;;;4992602;28;20077;-48
2022/03/23 06:30:23;;;;;;;42.85;28.83;;;1.90;99.90;;;;;;4992054;28;20137;-46
2022/03/23 06:32:48;;;;;;;43.97;29.00;;;2.00;99.90;;;;;;4991604;28;20077;-46
2022/03/23 06:35:16;;;;;;;48.08;30.73;;;2.00;99.90;;;;;;4991860;28;20463;-46
2022/03/23 06:37:42;;;;;;;41.72;29.35;;;2.10;99.90;;;;;;4991869;28;20023;-47
2022/03/23 06:40:08;;;;;;;43.55;30.10;;;2.20;99.90;;;;;;4991683;28;20088;-46
2022/03/23 06:42:33;;;;;;;39.10;29.25;;;2.20;99.90;;;;;;4991575;28;20030;-45
2022/03/23 06:45:01;;;;;;;42.03;29.88;;;2.30;99.90;;;;;;4991093;28;20034;-45
2022/03/23 06:47:27;;;;;;;43.45;30.85;;;2.40;99.90;;;;;;4991271;28;20485;-51
2022/03/23 06:49:52;;;;;;;43.92;30.98;;;2.50;99.90;;;;;;4991713;28;20029;-47
2022/03/23 06:52:18;;;;;;;44.40;31.23;;;2.60;99.90;;;;;;4990699;28;20421;-44
2022/03/23 06:54:43;;;;;;;42.92;29.67;;;2.70;99.90;;;;;;4989857;28;20405;-46
2022/03/23 06:57:09;;;;;;;44.20;30.08;;;2.80;99.90;;;;;;4991153;28;20563;-51
2022/03/23 06:59:34;;;;;;;41.28;29.48;;;2.90;99.90;;;;;;4991341;28;20041;-47
2022/03/23 07:02:00;;;;;;;41.60;29.67;;;3.10;99.90;;;;;;4991040;28;20035;-47
2022/03/23 07:04:26;;;;;;;42.55;30.27;;;3.20;99.90;;;;;;4991336;28;20105;-49
2022/03/23 07:06:52;;;;;;;40.75;28.33;;;3.30;99.90;;;;;;4991979;28;20049;-49
2022/03/23 07:09:33;;;;;;;40.55;28.38;;;3.50;99.90;;;;;;4991400;28;20069;-48
2022/03/23 07:12:04;;;;;;;36.10;26.02;;;3.70;99.90;;;;;;4990814;28;20456;-49
2022/03/23 07:14:31;;;;;;;39.28;27.35;;;3.90;99.90;;;;;;4991674;28;20110;-49
2022/03/23 07:16:57;;;;;;;36.00;25.63;;;4.10;99.90;;;;;;4991084;28;20077;-49
2022/03/23 07:19:23;;;;;;;42.17;28.70;;;4.20;99.90;;;;;;4990988;28;20026;-50
2022/03/23 07:21:49;;;;;;;37.67;26.42;;;4.40;99.90;;;;;;4990995;28;20065;-44
2022/03/23 07:24:15;;;;;;;37.78;25.90;;;4.50;99.90;;;;;;4991139;28;20436;-47
2022/03/23 07:26:40;;;;;;;37.30;25.75;;;4.70;99.90;;;;;;4989847;28;20084;-51
2022/03/23 07:29:06;;;;;;;31.65;23.92;;;4.90;99.90;;;;;;4989687;28;20030;-48
2022/03/23 07:31:32;;;;;;;30.75;24.10;;;5.10;99.90;;;;;;4989340;28;20026;-48
2022/03/23 07:33:58;;;;;;;32.88;22.55;;;5.30;99.90;;;;;;4989082;28;20449;-48
2022/03/23 07:36:24;;;;;;;29.30;21.25;;;5.50;99.90;;;;;;4991171;28;20026;-49
2022/03/23 07:38:51;;;;;;;30.25;21.30;;;5.70;99.90;;;;;;4989375;28;20030;-48
2022/03/23 07:41:16;;;;;;;28.88;20.92;;;5.90;99.90;;;;;;4991490;28;20449;-48
2022/03/23 07:43:42;;;;;;;26.33;20.15;;;6.20;99.90;;;;;;4991116;28;20037;-48
2022/03/23 07:46:08;;;;;;;26.50;18.98;;;6.40;99.90;;;;;;4991170;28;20117;-48
2022/03/23 07:48:34;;;;;;;25.13;19.40;;;6.70;99.90;;;;;;4991001;28;20041;-48
2022/03/23 07:50:59;;;;;;;27.15;18.50;;;7.00;99.90;;;;;;4989050;28;20424;-47
2022/03/23 07:53:25;;;;;;;24.85;17.63;;;7.30;99.90;;;;;;4990382;28;20378;-49
2022/03/23 07:55:51;;;;;;;27.50;18.50;;;7.60;99.90;;;;;;4990741;28;20034;-49
2022/03/23 07:58:16;;;;;;;25.27;18.55;;;7.90;99.90;;;;;;4990998;28;20049;-50
2022/03/23 08:00:43;;;;;;;30.17;19.45;;;8.20;99.90;;;;;;4989416;28;20550;-49
2022/03/23 08:03:10;;;;;;;23.83;18.83;;;8.40;99.90;;;;;;4990327;28;20112;-51
2022/03/23 08:05:47;;;;;;;28.13;19.27;;;8.70;99.90;;;;;;4990235;28;20416;-49
2022/03/23 08:08:12;;;;;;;29.08;18.73;;;9.00;99.80;;;;;;4990508;28;20061;-49
2022/03/23 08:10:43;;;;;;;22.63;17.80;;;9.20;98.10;;;;;;4989953;28;20062;-47
2022/03/23 08:13:09;;;;;;;25.52;18.15;;;9.50;98.80;;;;;;4990227;28;20064;-47
2022/03/23 08:15:36;;;;;;;26.65;18.15;;;9.80;99.90;;;;;;4989206;28;20031;-47
2022/03/23 08:18:02;;;;;;;25.30;17.48;;;10.00;99.50;;;;;;4989990;28;20038;-47
2022/03/23 08:20:35;;;;;;;21.95;16.52;;;10.30;95.30;;;;;;4990762;28;20088;-48
2022/03/23 08:23:12;;;;;;;21.90;16.92;;;10.50;94.90;;;;;;4989628;28;20042;-48
2022/03/23 08:25:41;;;;;;;21.73;16.08;;;10.80;93.50;;;;;;4990410;28;20440;-49
2022/03/23 08:28:07;;;;;;;20.02;15.70;;;11.00;93.20;;;;;;4989736;28;20026;-47
2022/03/23 08:30:33;;;;;;;19.80;14.88;;;11.30;89.50;;;;;;4990107;28;20748;-47
2022/03/23 08:32:59;;;;;;;18.48;14.23;;;11.60;88.50;;;;;;4989403;28;20035;-49
2022/03/23 08:35:25;;;;;;;15.07;12.55;;;11.90;80.00;;;;;;4988944;28;20515;-48
2022/03/23 08:37:51;;;;;;;19.35;12.90;;;12.10;75.30;;;;;;4989616;28;20030;-48
2022/03/23 08:40:17;;;;;;;18.02;13.18;;;12.30;77.60;;;;;;4990302;28;20022;-52
2022/03/23 08:42:43;;;;;;;18.42;12.68;;;12.60;72.30;;;;;;4989225;28;20023;-48
2022/03/23 08:45:09;;;;;;;14.98;13.43;;;12.80;71.60;;;;;;4990020;28;20018;-48
2022/03/23 08:47:35;;;;;;;20.05;13.38;;;13.00;71.20;;;;;;4989494;28;20023;-50
2022/03/23 08:50:02;;;;;;;14.00;11.52;;;13.20;70.30;;;;;;4990211;28;20105;-49
2022/03/23 08:52:31;;;;;;;13.07;11.77;;;13.50;65.70;;;;;;4988184;28;20073;-47
2022/03/23 08:54:57;;;;;;;15.05;12.63;;;13.60;64.60;;;;;;4990648;28;20588;-48
2022/03/23 08:57:23;;;;;;;16.88;11.77;;;13.80;64.60;;;;;;4989764;28;20027;-49
2022/03/23 08:59:49;;;;;;;16.63;11.93;;;14.00;64.00;;;;;;4989952;28;20029;-49
2022/03/23 09:02:14;;;;;;;14.75;12.70;;;14.10;65.10;;;;;;4989236;28;20030;-48
2022/03/23 09:04:41;;;;;;;21.25;13.23;;;14.30;63.70;;;;;;4989544;28;20031;-48
2022/03/23 09:07:06;;;;;;;16.23;13.60;;;14.40;62.00;;;;;;4989675;28;20022;-47
2022/03/23 09:09:32;;;;;;;14.95;13.13;;;14.60;63.00;;;;;;4989696;28;20030;-48
2022/03/23 09:11:57;;;;;;;16.00;12.73;;;14.70;66.10;;;;;;4989271;28;20076;-50
2022/03/23 09:14:23;;;;;;;16.42;14.20;;;15.00;64.30;;;;;;4989908;28;20019;-50
2022/03/23 09:16:49;;;;;;;16.65;13.98;;;15.20;65.70;;;;;;4988122;28;20058;-49
2022/03/23 09:19:19;;;;;;;17.60;14.32;;;15.40;61.10;;;;;;4989538;28;20253;-50
2022/03/23 09:21:49;;;;;;;17.42;14.05;;;15.50;61.20;;;;;;4988778;28;20619;-47
2022/03/23 09:24:15;;;;;;;16.08;14.18;;;15.60;59.30;;;;;;4989117;28;20089;-48
2022/03/23 09:26:41;;;;;;;19.98;15.20;;;15.60;57.70;;;;;;4989000;28;20030;-48
2022/03/23 09:29:10;;;;;;;15.40;13.75;;;15.60;57.90;;;;;;4989719;28;20030;-51
2022/03/23 09:31:36;;;;;;;17.20;14.30;;;15.50;56.70;;;;;;4987367;28;20032;-48
2022/03/23 09:34:02;;;;;;;16.02;14.07;;;15.50;59.90;;;;;;4989401;28;20026;-49
2022/03/23 09:39:13;;;;;;;18.77;15.52;;;15.60;58.10;;;;;;4990296;28;20547;-51
2022/03/23 09:41:40;;;;;;;19.45;15.23;;;15.80;60.90;;;;;;4988549;28;20042;-48
2022/03/23 09:44:06;;;;;;;19.05;15.68;;;15.90;58.40;;;;;;4989122;28;20420;-51
2022/03/23 09:46:34;;;;;;;18.45;15.18;;;16.00;57.10;;;;;;4990526;28;20444;-50
2022/03/23 09:49:01;;;;;;;18.63;15.68;;;16.10;56.80;;;;;;4989833;28;20105;-49
2022/03/23 09:51:30;;;;;;;17.48;14.38;;;16.20;57.40;;;;;;4992297;28;20139;-50
2022/03/23 09:53:58;;;;;;;20.92;15.45;;;16.30;56.20;;;;;;4990428;28;20154;-48
2022/03/23 09:56:23;;;;;;;19.15;15.32;;;16.40;57.70;;;;;;4986871;28;20058;-50
2022/03/23 09:58:49;;;;;;;18.08;14.73;;;16.50;56.00;;;;;;4991049;28;20069;-52
2022/03/23 10:01:30;;;;;;;16.80;14.70;;;16.50;56.50;;;;;;4986618;28;20138;-51
2022/03/23 10:04:18;;;;;;;17.58;14.48;;;16.60;56.50;;;;;;4972792;28;20027;-53
2022/03/23 10:06:59;;;;;;;17.08;14.05;;;16.70;56.70;;;;;;4988650;28;20026;-49
2022/03/23 10:09:40;;;;;;;18.80;14.80;;;16.80;56.50;;;;;;4991981;28;20022;-48
2022/03/23 10:12:43;;;;;;;17.83;13.95;;;16.90;56.30;;;;;;4991410;28;20117;-50
2022/03/23 10:15:46;;;;;;;17.60;13.93;;;17.00;57.50;;;;;;4992050;28;20022;-52
2022/03/23 10:18:47;;;;;;;15.60;13.65;;;17.10;55.00;;;;;;4990463;28;20053;-49
2022/03/23 10:21:13;;;;;;;18.20;14.77;;;17.10;55.50;;;;;;4988102;28;20042;-52
2022/03/23 10:23:49;;;;;;;18.83;14.75;;;17.20;54.40;;;;;;4989784;28;20078;-49
2022/03/23 10:26:16;;;;;;;18.88;14.55;;;17.20;55.20;;;;;;4989415;28;20022;-52
2022/03/23 10:28:42;;;;;;;15.82;13.57;;;17.20;54.30;;;;;;4991271;28;20038;-50
2022/03/23 10:31:19;;;;;;;16.65;14.65;;;17.10;53.30;;;;;;4989765;28;20032;-48
2022/03/23 10:33:59;;;;;;;16.98;14.63;;;17.00;54.20;;;;;;4991357;28;20050;-47
2022/03/23 10:36:28;;;;;;;21.92;14.90;;;16.90;54.70;;;;;;4988592;28;20113;-48
2022/03/23 10:39:06;;;;;;;20.15;14.95;;;17.00;54.50;;;;;;4990767;28;20098;-49
2022/03/23 10:41:32;;;;;;;19.95;15.35;;;17.00;55.20;;;;;;4987885;28;20105;-51
2022/03/23 10:43:58;;;;;;;17.27;13.90;;;17.00;55.70;;;;;;4988347;28;20033;-50
2022/03/23 10:46:24;;;;;;;15.25;13.70;;;17.10;54.40;;;;;;4991834;28;20028;-52
2022/03/23 10:48:54;;;;;;;18.90;14.15;;;17.20;55.40;;;;;;4992808;28;20105;-48
2022/03/23 10:51:31;;;;;;;15.27;12.82;;;17.30;54.30;;;;;;4995619;28;20030;-50
2022/03/23 10:53:56;;;;;;;17.95;14.50;;;17.30;54.20;;;;;;4997469;28;20121;-53
2022/03/23 10:56:38;;;;;;;17.75;14.40;;;17.00;51.70;;;;;;4995842;28;20097;-53
2022/03/23 10:59:22;;;;;;;19.02;13.80;;;17.00;53.30;;;;;;4995953;28;20105;-49
2022/03/23 11:02:05;;;;;;;15.05;13.48;;;17.00;54.70;;;;;;4997177;28;20037;-51
2022/03/23 11:07:01;;;;;;;17.13;14.20;;;17.30;55.40;;;;;;4996240;28;20056;-49
2022/03/23 11:18:12;;;;;;;15.90;12.48;;;17.20;54.80;;;;;;5002975;28;20133;-52
2022/03/23 11:20:48;;;;;;;18.17;13.82;;;17.20;54.90;;;;;;4991231;28;20076;-53
2022/03/23 11:23:24;;;;;;;22.40;13.93;;;17.30;54.20;;;;;;4990995;28;20110;-51
2022/03/23 11:26:02;;;;;;;18.10;14.10;;;17.20;54.90;;;;;;4977256;28;20046;-52
2022/03/23 11:28:31;;;;;;;20.33;14.27;;;17.20;57.10;;;;;;4991294;28;20050;-51
2022/03/23 11:30:57;;;;;;;18.67;13.32;;;17.30;57.20;;;;;;4991266;28;20042;-52
2022/03/23 11:33:25;;;;;;;19.98;14.25;;;17.30;57.10;;;;;;4990889;28;20652;-53
2022/03/23 11:35:52;;;;;;;20.45;14.15;;;17.40;56.10;;;;;;4991407;28;20018;-53
2022/03/23 11:38:23;;;;;;;21.15;14.45;;;17.40;56.10;;;;;;4990360;28;20041;-55
2022/03/23 11:40:50;;;;;;;16.08;13.50;;;17.50;55.30;;;;;;4991362;28;20559;-51
2022/03/23 11:43:19;;;;;;;18.73;13.65;;;17.50;57.40;;;;;;4990685;28;20034;-52
2022/03/23 11:45:46;;;;;;;20.85;14.82;;;17.50;56.80;;;;;;4991129;28;20030;-53
2022/03/23 11:48:32;;;;;;;19.65;15.45;;;17.50;57.40;;;;;;4991025;28;20018;-55
2022/03/23 11:51:16;;;;;;;22.45;14.20;;;17.50;58.00;;;;;;4990197;28;20026;-54
2022/03/23 11:54:07;;;;;;;18.58;14.02;;;17.50;58.20;;;;;;4990480;28;20080;-52
2022/03/23 11:56:36;;;;;;;21.88;14.23;;;17.50;58.70;;;;;;4990843;28;20169;-50
2022/03/23 11:59:28;;;;;;;19.00;14.35;;;17.50;58.30;;;;;;4990385;28;20037;-53
2022/03/23 12:01:54;;;;;;;15.85;12.38;;;17.50;57.60;;;;;;4990601;28;20422;-52
2022/03/23 12:04:22;;;;;;;17.42;13.93;;;17.60;58.70;;;;;;4990100;28;20065;-52
2022/03/23 12:07:04;;;;;;;22.52;15.45;;;17.70;58.90;;;;;;4990641;28;20034;-53
2022/03/23 12:09:36;;;;;;;15.88;13.45;;;17.70;56.70;;;;;;4990566;28;20080;-56
2022/03/23 12:12:38;;;;;;;23.48;15.55;;;17.70;58.50;;;;;;4989922;28;20485;-55
2022/03/23 12:15:23;;;;;;;21.20;15.23;;;17.70;57.20;;;;;;4989382;28;20041;-51
2022/03/23 12:17:54;;;;;;;22.75;16.27;;;17.80;57.90;;;;;;4990632;28;20022;-52
2022/03/23 12:20:37;;;;;;;21.20;15.85;;;17.60;59.20;;;;;;4989898;28;20033;-49
2022/03/23 12:23:37;;;;;;;16.90;14.00;;;17.70;58.80;;;;;;4989833;28;20029;-52
2022/03/23 12:26:16;;;;;;;21.35;14.95;;;17.70;58.60;;;;;;4990161;28;20026;-52
2022/03/23 12:28:53;;;;;;;19.38;14.38;;;17.80;56.70;;;;;;4988944;28;20174;-55
2022/03/23 12:31:19;;;;;;;21.77;16.10;;;17.80;58.90;;;;;;4990300;28;20031;-54
2022/03/23 12:34:03;;;;;;;25.30;16.02;;;17.80;59.60;;;;;;4989988;28;20428;-52
2022/03/23 12:39:24;;;;;;;19.63;15.68;;;17.50;59.40;;;;;;4990560;28;20094;-52
2022/03/23 12:41:50;;;;;;;21.65;15.48;;;17.50;58.60;;;;;;4989960;28;20031;-52
2022/03/23 12:44:15;;;;;;;24.30;16.38;;;17.60;59.80;;;;;;4989910;28;20025;-52
2022/03/23 12:46:48;;;;;;;22.58;15.70;;;17.60;61.00;;;;;;4990660;28;20026;-51
2022/03/23 13:00:26;;;;;;;20.25;15.65;;;17.50;60.60;;;;;;4989068;28;20049;-52
2022/03/23 13:03:06;;;;;;;24.42;17.65;;;17.50;60.40;;;;;;4989550;28;20030;-51
2022/03/23 13:05:33;;;;;;;23.92;16.52;;;17.50;60.00;;;;;;4989600;28;20396;-51
2022/03/23 13:07:58;;;;;;;25.50;18.23;;;17.40;60.90;;;;;;4989443;28;20049;-54
2022/03/23 13:10:27;;;;;;;23.85;16.58;;;17.50;61.20;;;;;;4989151;28;20480;-49
2022/03/23 13:13:08;;;;;;;23.90;18.80;;;17.50;61.80;;;;;;4989408;28;20030;-54
2022/03/23 13:15:34;;;;;;;27.10;18.08;;;17.40;60.00;;;;;;4990021;28;20023;-50
2022/03/23 13:18:00;;;;;;;20.92;17.17;;;17.40;60.10;;;;;;4989611;28;20030;-54